Time;durP1;ratioP1;P1;durP2;ratioP2;P2;SDS_P1;SDS_P2;PMS_P1;PMS_P2;Temp;Humidity;BMP_temperature;BMP_pressure;BME280_temperature;BME280_humidity;BME280_pressure;Samples;Min_cycle;Max_cycle;Signal;HPM_P1;HPM_P2
2022/05/15 00:01:03;;;;;;;;;;;17.20;89.00;;;;;;5000899;28;20407;-83
2022/05/15 00:03:38;;;;;;;;;;;17.20;89.10;;;;;;4995668;28;20389;-82
2022/05/15 00:06:06;;;;;;;;;;;17.10;89.00;;;;;;4997536;28;20070;-81
2022/05/15 00:08:35;;;;;;;;;;;17.10;89.00;;;;;;4990292;28;19926;-83
2022/05/15 00:11:03;;;;;;;;;;;17.10;88.90;;;;;;4997432;28;19942;-83
2022/05/15 00:13:30;;;;;;;;;;;17.00;88.60;;;;;;4996767;28;20025;-82
2022/05/15 00:15:57;;;;;;;;;;;17.00;88.60;;;;;;4999230;28;19933;-82
2022/05/15 00:18:26;;;;;;;;;;;17.00;88.50;;;;;;4988091;28;19933;-83
2022/05/15 00:20:53;;;;;;;;;;;16.90;88.40;;;;;;4999177;28;20308;-82
2022/05/15 00:23:20;;;;;;;;;;;16.90;88.40;;;;;;4998929;28;20293;-82
2022/05/15 00:25:48;;;;;;;;;;;16.90;88.40;;;;;;4995616;28;19940;-82
2022/05/15 00:28:15;;;;;;;;;;;16.80;88.20;;;;;;5000818;28;19932;-82
2022/05/15 00:30:42;;;;;;;;;;;16.80;88.40;;;;;;4998014;28;19933;-82
2022/05/15 00:33:09;;;;;;;;;;;16.80;88.50;;;;;;5005485;28;19960;-82
2022/05/15 00:35:37;;;;;;;;;;;16.70;88.40;;;;;;4995781;28;19953;-82
2022/05/15 00:38:05;;;;;;;;;;;16.70;88.50;;;;;;5014594;28;19926;-82
2022/05/15 00:40:32;;;;;;;;;;;16.60;88.40;;;;;;4994385;28;19925;-82
2022/05/15 00:42:59;;;;;;;;;;;16.60;88.30;;;;;;4996341;28;20288;-82
2022/05/15 00:45:26;;;;;;;;;;;16.60;88.20;;;;;;4990721;28;19930;-82
2022/05/15 00:47:53;;;;;;;;;;;16.50;88.10;;;;;;4998783;28;19926;-82
2022/05/15 00:50:23;;;;;;;;;;;16.50;88.20;;;;;;5005309;28;19940;-81
2022/05/15 00:52:54;;;;;;;;;;;16.50;88.40;;;;;;4997640;28;19944;-81
2022/05/15 00:55:22;;;;;;;;;;;16.50;88.30;;;;;;4997583;28;20013;-81
2022/05/15 00:57:53;;;;;;;;;;;16.40;88.30;;;;;;4993054;28;19952;-83
2022/05/15 01:00:22;;;;;;;;;;;16.40;88.70;;;;;;4993310;28;19930;-82
2022/05/15 01:02:51;;;;;;;;;;;16.30;88.20;;;;;;4996202;28;20337;-82
2022/05/15 01:05:19;;;;;;;;;;;16.30;88.20;;;;;;5006072;28;19934;-82
2022/05/15 01:07:46;;;;;;;;;;;16.30;88.30;;;;;;4995047;28;19926;-82
2022/05/15 01:10:15;;;;;;;;;;;16.20;88.30;;;;;;4992601;28;19925;-82
2022/05/15 01:12:43;;;;;;;;;;;16.20;88.30;;;;;;4999819;28;19968;-82
2022/05/15 01:15:17;;;;;;;;;;;16.20;88.50;;;;;;5017865;28;20303;-82
2022/05/15 01:17:44;;;;;;;;;;;16.10;88.50;;;;;;4998951;28;20524;-82
2022/05/15 01:20:13;;;;;;;;;;;16.10;88.70;;;;;;4998810;28;19949;-83
2022/05/15 01:22:42;;;;;;;;;;;16.10;88.90;;;;;;5000224;28;19934;-82
2022/05/15 01:25:12;;;;;;;;;;;16.00;88.90;;;;;;5009695;28;19926;-82
2022/05/15 01:27:39;;;;;;;;;;;16.00;89.10;;;;;;4995930;28;19932;-82
2022/05/15 01:30:08;;;;;;;;;;;16.00;89.10;;;;;;4996266;28;19970;-82
2022/05/15 01:32:35;;;;;;;;;;;16.00;89.10;;;;;;5002032;28;19929;-81
2022/05/15 01:35:03;;;;;;;;;;;;;;;;;;4999686;28;19976;-82
2022/05/15 01:37:30;;;;;;;;;;;15.90;88.40;;;;;;5006757;28;19949;-82
2022/05/15 01:39:59;;;;;;;;;;;15.90;89.00;;;;;;4988558;23;20452;-76
2022/05/15 01:42:26;;;;;;;;;;;15.80;89.00;;;;;;4961740;28;19934;-77
2022/05/15 01:44:53;;;;;;;;;;;15.80;89.10;;;;;;4950700;28;19930;-77
2022/05/15 01:47:20;;;;;;;;;;;15.80;89.20;;;;;;4953010;28;20041;-77
2022/05/15 01:49:47;;;;;;;;;;;15.70;89.20;;;;;;4943693;28;20294;-77
2022/05/15 01:52:14;;;;;;;;;;;15.70;89.20;;;;;;4949500;28;19925;-77
2022/05/15 01:54:41;;;;;;;;;;;15.70;89.40;;;;;;4951567;28;20524;-78
2022/05/15 01:57:11;;;;;;;;;;;15.70;89.40;;;;;;4945747;28;20021;-76
2022/05/15 01:59:38;;;;;;;;;;;15.70;89.60;;;;;;4948457;28;20337;-78
2022/05/15 02:02:06;;;;;;;;;;;15.60;89.50;;;;;;4947811;28;19930;-77
2022/05/15 02:04:32;;;;;;;;;;;15.60;89.60;;;;;;4948970;28;19933;-77
2022/05/15 02:06:59;;;;;;;;;;;15.60;89.70;;;;;;4961690;28;20202;-78
2022/05/15 02:09:27;;;;;;;;;;;15.50;89.60;;;;;;4949831;28;19985;-77
2022/05/15 02:11:54;;;;;;;;;;;15.50;89.80;;;;;;4962009;28;19994;-76
2022/05/15 02:14:22;;;;;;;;;;;15.50;89.90;;;;;;4948721;28;19926;-77
2022/05/15 02:16:49;;;;;;;;;;;15.40;90.00;;;;;;4952326;28;20285;-77
2022/05/15 02:19:17;;;;;;;;;;;15.50;90.00;;;;;;4944354;28;19926;-77
2022/05/15 02:21:44;;;;;;;;;;;15.40;89.90;;;;;;4946199;28;19942;-77
2022/05/15 02:24:11;;;;;;;;;;;15.40;90.00;;;;;;4963323;28;19942;-77
2022/05/15 02:26:39;;;;;;;;;;;15.30;90.00;;;;;;4952214;28;19934;-78
2022/05/15 02:29:07;;;;;;;;;;;15.30;90.00;;;;;;4950160;28;19926;-78
2022/05/15 02:31:35;;;;;;;;;;;15.30;90.00;;;;;;4963614;28;20020;-77
2022/05/15 02:34:02;;;;;;;;;;;15.30;90.00;;;;;;4955684;28;19926;-77
2022/05/15 02:36:30;;;;;;;;;;;15.20;90.00;;;;;;4949920;28;20388;-78
2022/05/15 02:38:57;;;;;;;;;;;15.20;90.10;;;;;;4949985;28;19965;-77
2022/05/15 02:41:26;;;;;;;;;;;15.20;90.00;;;;;;4951944;28;19949;-77
2022/05/15 02:43:53;;;;;;;;;;;15.20;90.00;;;;;;4950810;28;19937;-78
2022/05/15 02:46:20;;;;;;;;;;;15.20;90.10;;;;;;4959796;28;19933;-77
2022/05/15 02:51:33;;;;;;;;;;;15.10;90.10;;;;;;4957920;28;19980;-77
2022/05/15 02:54:00;;;;;;;;;;;15.10;90.10;;;;;;4951393;28;19970;-78
2022/05/15 02:56:29;;;;;;;;;;;15.00;90.10;;;;;;4950087;28;19930;-76
2022/05/15 02:58:56;;;;;;;;;;;15.00;90.10;;;;;;4960935;28;19933;-77
2022/05/15 03:01:24;;;;;;;;;;;15.00;90.10;;;;;;4943591;28;19985;-75
2022/05/15 03:03:52;;;;;;;;;;;15.00;90.10;;;;;;4955064;28;20045;-77
2022/05/15 03:06:20;;;;;;;;;;;14.90;90.10;;;;;;4947458;28;20404;-77
2022/05/15 03:08:48;;;;;;;;;;;14.90;90.10;;;;;;4946330;28;19937;-77
2022/05/15 03:11:16;;;;;;;;;;;14.90;90.10;;;;;;4949096;28;19930;-77
2022/05/15 03:13:43;;;;;;;;;;;14.90;90.10;;;;;;4946122;28;19934;-76
2022/05/15 03:16:10;;;;;;;;;;;14.80;90.10;;;;;;4965450;28;19926;-77
2022/05/15 03:18:38;;;;;;;;;;;14.80;90.10;;;;;;4947063;28;19926;-77
2022/05/15 03:21:06;;;;;;;;;;;14.80;90.10;;;;;;4958008;28;19977;-76
2022/05/15 03:23:34;;;;;;;;;;;14.80;90.20;;;;;;4952403;28;19926;-77
2022/05/15 03:26:01;;;;;;;;;;;14.70;90.20;;;;;;4969820;28;19926;-76
2022/05/15 03:28:28;;;;;;;;;;;14.70;90.20;;;;;;4951430;28;20537;-77
2022/05/15 03:30:55;;;;;;;;;;;14.70;90.20;;;;;;4966329;28;19926;-77
2022/05/15 03:33:22;;;;;;;;;;;14.70;90.30;;;;;;4952599;28;19989;-76
2022/05/15 03:35:49;;;;;;;;;;;14.60;90.30;;;;;;4950903;28;19930;-77
2022/05/15 03:38:17;;;;;;;;;;;14.60;90.20;;;;;;4953301;28;19926;-77
2022/05/15 03:40:44;;;;;;;;;;;14.60;90.20;;;;;;4965559;28;19934;-76
2022/05/15 03:43:11;;;;;;;;;;;14.60;90.20;;;;;;4953429;28;19926;-78
2022/05/15 03:45:38;;;;;;;;;;;14.50;91.60;;;;;;4969052;28;20455;-76
2022/05/15 03:48:06;;;;;;;;;;;14.50;90.20;;;;;;4951939;28;20016;-77
2022/05/15 03:50:35;;;;;;;;;;;14.50;90.30;;;;;;4951573;28;19989;-76
2022/05/15 03:53:02;;;;;;;;;;;14.50;90.30;;;;;;4966888;28;19937;-77
2022/05/15 03:55:31;;;;;;;;;;;14.40;90.30;;;;;;4966691;28;19973;-76
2022/05/15 03:57:58;;;;;;;;;;;14.40;90.30;;;;;;4967612;28;19926;-77
2022/05/15 04:00:28;;;;;;;;;;;14.40;90.30;;;;;;4963312;28;20021;-77
2022/05/15 04:02:57;;;;;;;;;;;14.40;90.40;;;;;;4953799;28;19941;-77
2022/05/15 04:05:24;;;;;;;;;;;14.30;90.40;;;;;;4966288;28;20012;-78
2022/05/15 04:07:51;;;;;;;;;;;14.30;90.40;;;;;;4970753;28;19926;-76
2022/05/15 04:10:20;;;;;;;;;;;14.30;90.40;;;;;;4967422;28;19926;-78
2022/05/15 04:12:48;;;;;;;;;;;14.30;90.50;;;;;;4963756;28;19992;-78
2022/05/15 04:15:15;;;;;;;;;;;14.20;90.70;;;;;;4970362;28;20043;-75
2022/05/15 04:17:44;;;;;;;;;;;14.20;90.40;;;;;;4954590;28;20301;-76
2022/05/15 04:20:11;;;;;;;;;;;14.20;90.50;;;;;;4949224;28;19926;-76
2022/05/15 04:22:38;;;;;;;;;;;14.20;90.50;;;;;;4957147;28;22303;-77
2022/05/15 04:25:05;;;;;;;;;;;14.10;90.40;;;;;;4953801;28;19973;-76
2022/05/15 04:27:33;;;;;;;;;;;14.10;90.50;;;;;;4965605;28;19926;-77
2022/05/15 04:30:01;;;;;;;;;;;14.10;90.60;;;;;;4966825;28;19937;-77
2022/05/15 04:32:28;;;;;;;;;;;14.10;90.60;;;;;;4972858;28;19926;-77
2022/05/15 04:34:55;;;;;;;;;;;14.10;90.60;;;;;;4968047;28;19926;-77
2022/05/15 04:37:22;;;;;;;;;;;14.00;90.50;;;;;;4963173;28;20408;-77
2022/05/15 04:39:49;;;;;;;;;;;14.00;90.50;;;;;;4969116;28;19926;-77
2022/05/15 04:42:16;;;;;;;;;;;14.00;90.60;;;;;;4965085;28;19933;-77
2022/05/15 04:44:43;;;;;;;;;;;14.00;90.60;;;;;;4966296;28;19930;-77
2022/05/15 04:47:11;;;;;;;;;;;14.00;90.70;;;;;;4967645;28;19926;-77
2022/05/15 04:49:38;;;;;;;;;;;14.00;90.60;;;;;;4967430;28;19985;-77
2022/05/15 04:52:05;;;;;;;;;;;13.90;90.60;;;;;;4952952;28;20025;-77
2022/05/15 04:54:32;;;;;;;;;;;13.90;90.70;;;;;;4967582;28;20381;-77
2022/05/15 04:56:59;;;;;;;;;;;13.90;90.70;;;;;;4963817;28;19934;-77
2022/05/15 04:59:26;;;;;;;;;;;13.80;90.60;;;;;;4953828;28;19926;-77
2022/05/15 05:01:53;;;;;;;;;;;13.90;90.70;;;;;;4962261;28;19926;-77
2022/05/15 05:04:22;;;;;;;;;;;13.80;90.70;;;;;;4963658;28;19930;-76
2022/05/15 05:06:49;;;;;;;;;;;13.80;90.80;;;;;;4965342;28;19934;-77
2022/05/15 05:09:16;;;;;;;;;;;13.80;90.80;;;;;;4967493;28;19980;-77
2022/05/15 05:11:43;;;;;;;;;;;13.80;90.70;;;;;;4952574;28;19972;-77
2022/05/15 05:14:10;;;;;;;;;;;13.80;90.70;;;;;;4965214;28;19933;-76
2022/05/15 05:16:37;;;;;;;;;;;13.70;90.90;;;;;;4963712;28;19926;-78
2022/05/15 05:19:04;;;;;;;;;;;13.70;90.80;;;;;;4969633;28;20562;-77
2022/05/15 05:21:33;;;;;;;;;;;13.70;90.80;;;;;;4955121;28;19926;-78
2022/05/15 05:24:00;;;;;;;;;;;13.70;90.90;;;;;;4966812;28;19942;-77
2022/05/15 05:26:27;;;;;;;;;;;13.60;90.90;;;;;;4968039;28;19981;-76
2022/05/15 05:28:55;;;;;;;;;;;13.50;91.50;;;;;;4961668;28;19930;-78
2022/05/15 05:31:22;;;;;;;;;;;13.40;91.80;;;;;;4962492;28;19930;-78
2022/05/15 05:33:49;;;;;;;;;;;13.30;92.40;;;;;;4959182;28;19934;-78
2022/05/15 05:36:16;;;;;;;;;;;13.30;92.30;;;;;;4949609;28;19926;-79
2022/05/15 05:38:45;;;;;;;;;;;13.30;92.40;;;;;;4961398;28;19927;-78
2022/05/15 05:41:12;;;;;;;;;;;13.30;92.50;;;;;;4966462;28;19927;-78
2022/05/15 05:43:39;;;;;;;;;;;13.30;92.60;;;;;;4966888;28;19988;-79
2022/05/15 05:46:06;;;;;;;;;;;13.30;92.60;;;;;;4950547;28;19926;-79
2022/05/15 05:48:33;;;;;;;;;;;13.30;92.80;;;;;;4958992;28;19970;-78
2022/05/15 05:51:01;;;;;;;;;;;13.30;92.90;;;;;;4964155;28;20309;-78
2022/05/15 05:53:28;;;;;;;;;;;13.40;93.00;;;;;;4965447;28;19937;-78
2022/05/15 05:55:56;;;;;;;;;;;13.40;93.10;;;;;;4962957;28;19956;-79
2022/05/15 05:58:23;;;;;;;;;;;13.50;93.10;;;;;;4965013;28;20440;-79
2022/05/15 06:00:50;;;;;;;;;;;13.50;93.10;;;;;;4949623;28;19933;-79
2022/05/15 06:06:01;;;;;;;;;;;13.50;93.20;;;;;;4963866;28;19928;-77
2022/05/15 06:08:30;;;;;;;;;;;13.60;93.20;;;;;;4965239;28;19949;-77
2022/05/15 06:10:58;;;;;;;;;;;13.60;93.30;;;;;;4965320;28;19933;-78
2022/05/15 06:13:26;;;;;;;;;;;13.60;93.30;;;;;;4947970;28;19936;-77
2022/05/15 06:15:53;;;;;;;;;;;13.60;93.40;;;;;;4942981;28;19938;-79
2022/05/15 06:18:20;;;;;;;;;;;13.60;93.50;;;;;;4942250;28;20009;-78
2022/05/15 06:20:47;;;;;;;;;;;13.70;93.60;;;;;;4964127;28;19930;-79
2022/05/15 06:23:14;;;;;;;;;;;13.70;93.70;;;;;;4962412;28;19926;-79
2022/05/15 06:25:41;;;;;;;;;;;13.70;93.80;;;;;;4962359;28;19934;-78
2022/05/15 06:28:10;;;;;;;;;;;13.70;93.90;;;;;;4961002;28;20403;-77
2022/05/15 06:30:37;;;;;;;;;;;13.80;94.00;;;;;;4966045;28;20028;-78
2022/05/15 06:33:04;;;;;;;;;;;13.80;94.10;;;;;;4960253;28;19996;-77
2022/05/15 06:35:31;;;;;;;;;;;13.90;94.20;;;;;;4960972;28;19949;-78
2022/05/15 06:38:00;;;;;;;;;;;13.90;94.10;;;;;;4955434;28;19949;-78
2022/05/15 06:40:27;;;;;;;;;;;13.90;94.30;;;;;;4960996;28;19926;-77
2022/05/15 06:42:57;;;;;;;;;;;14.00;94.70;;;;;;4964067;28;20204;-77
2022/05/15 06:45:26;;;;;;;;;;;14.00;94.40;;;;;;4958207;28;19937;-77
2022/05/15 06:47:53;;;;;;;;;;;14.00;94.50;;;;;;4968217;28;20001;-77
2022/05/15 06:50:21;;;;;;;;;;;14.10;94.50;;;;;;4944532;28;19934;-77
2022/05/15 06:52:48;;;;;;;;;;;14.10;94.60;;;;;;4973379;28;19930;-77
2022/05/15 06:55:17;;;;;;;;;;;14.10;94.60;;;;;;4972409;28;20419;-77
2022/05/15 06:57:43;;;;;;;;;;;14.10;94.50;;;;;;4944324;28;19926;-77
2022/05/15 07:00:11;;;;;;;;;;;14.10;94.50;;;;;;4970485;28;20388;-77
2022/05/15 07:02:41;;;;;;;;;;;14.10;94.60;;;;;;4965995;28;20398;-76
2022/05/15 07:05:09;;;;;;;;;;;14.10;94.60;;;;;;4962502;28;20381;-77
2022/05/15 07:07:37;;;;;;;;;;;14.20;94.70;;;;;;4961078;28;20379;-77
2022/05/15 07:10:05;;;;;;;;;;;14.20;94.70;;;;;;4956842;28;19934;-76
2022/05/15 07:12:32;;;;;;;;;;;14.20;94.90;;;;;;4942000;28;20376;-76
2022/05/15 07:14:59;;;;;;;;;;;14.50;95.60;;;;;;4960935;28;20388;-78
2022/05/15 07:17:29;;;;;;;;;;;14.80;95.60;;;;;;4966822;28;20286;-77
2022/05/15 07:19:57;;;;;;;;;;;15.10;95.20;;;;;;4943290;28;19934;-77
2022/05/15 07:22:24;;;;;;;;;;;15.30;95.10;;;;;;4957994;28;19934;-77
2022/05/15 07:24:51;;;;;;;;;;;15.30;94.90;;;;;;4961844;28;19952;-78
2022/05/15 07:27:18;;;;;;;;;;;15.40;94.20;;;;;;4962888;28;19934;-77
2022/05/15 07:29:45;;;;;;;;;;;15.60;94.20;;;;;;4964800;28;19981;-77
2022/05/15 07:32:12;;;;;;;;;;;15.70;94.00;;;;;;4960968;28;19926;-77
2022/05/15 07:34:40;;;;;;;;;;;15.80;94.20;;;;;;4960701;28;19934;-78
2022/05/15 07:37:11;;;;;;;;;;;15.80;94.10;;;;;;4956997;28;20398;-77
2022/05/15 07:39:38;;;;;;;;;;;15.90;94.00;;;;;;4961696;28;19950;-76
2022/05/15 07:42:06;;;;;;;;;;;16.00;93.80;;;;;;4963366;28;19934;-79
2022/05/15 07:44:33;;;;;;;;;;;16.00;93.80;;;;;;4963360;28;19930;-78
2022/05/15 07:47:02;;;;;;;;;;;15.80;94.00;;;;;;4974619;23;20404;-89
2022/05/15 07:49:31;;;;;;;;;;;15.80;94.30;;;;;;4985519;28;19978;-87
2022/05/15 07:51:58;;;;;;;;;;;15.70;94.40;;;;;;4967579;28;19933;-87
2022/05/15 07:54:26;;;;;;;;;;;15.70;94.50;;;;;;4986430;28;19934;-85
2022/05/15 07:56:56;;;;;;;;;;;15.70;94.60;;;;;;4987540;28;19926;-82
2022/05/15 07:59:23;;;;;;;;;;;15.60;94.70;;;;;;4963673;28;19997;-82
2022/05/15 08:01:54;;;;;;;;;;;15.60;94.80;;;;;;4965593;28;19929;-82
2022/05/15 08:04:21;;;;;;;;;;;15.60;94.80;;;;;;4988059;28;19984;-83
2022/05/15 08:09:34;;;;;;;;;;;15.60;94.90;;;;;;4984983;28;19928;-83
2022/05/15 08:12:01;;;;;;;;;;;15.60;94.90;;;;;;4985954;28;19936;-84
2022/05/15 08:14:29;;;;;;;;;;;15.60;94.70;;;;;;4972823;28;19926;-84
2022/05/15 08:16:56;;;;;;;;;;;15.70;94.60;;;;;;4987792;28;20029;-85
2022/05/15 08:24:54;;;;;;;;;;;16.00;95.20;;;;;;4963615;28;20415;-84
2022/05/15 08:27:21;;;;;;;;;;;16.00;94.80;;;;;;4981182;28;19930;-83
2022/05/15 08:29:48;;;;;;;;;;;15.90;94.50;;;;;;4982597;28;19973;-83
2022/05/15 08:32:15;;;;;;;;;;;16.00;94.60;;;;;;4979295;28;19929;-83
2022/05/15 08:34:42;;;;;;;;;;;15.90;94.70;;;;;;4967660;28;19930;-83
2022/05/15 08:37:09;;;;;;;;;;;16.00;94.80;;;;;;4988892;28;19934;-83
2022/05/15 08:39:36;;;;;;;;;;;16.00;94.90;;;;;;4974300;28;20020;-83
2022/05/15 08:42:14;;;;;;;;;;;16.20;94.90;;;;;;4985522;28;20579;-83
2022/05/15 08:44:43;;;;;;;;;;;16.30;95.10;;;;;;4969754;28;19993;-84
2022/05/15 08:47:17;;;;;;;;;;;16.30;94.90;;;;;;4965116;28;20289;-83
2022/05/15 08:49:46;;;;;;;;;;;16.30;94.70;;;;;;4985276;28;19932;-84
2022/05/15 08:52:15;;;;;;;;;;;16.40;95.00;;;;;;4969175;28;19926;-83
2022/05/15 08:54:45;;;;;;;;;;;16.40;95.00;;;;;;4983391;28;20367;-83
2022/05/15 08:57:23;;;;;;;;;;;16.40;94.50;;;;;;4977338;28;19969;-85
2022/05/15 08:59:54;;;;;;;;;;;16.40;94.70;;;;;;4987081;28;20327;-84
2022/05/15 09:02:21;;;;;;;;;;;16.50;94.70;;;;;;4987711;28;20415;-83
2022/05/15 09:04:48;;;;;;;;;;;16.50;94.80;;;;;;4983513;28;19994;-84
2022/05/15 09:07:21;;;;;;;;;;;16.50;94.50;;;;;;4984789;28;20012;-84
2022/05/15 09:09:53;;;;;;;;;;;16.50;94.60;;;;;;4986569;28;20006;-84
2022/05/15 09:12:23;;;;;;;;;;;16.70;94.70;;;;;;4988870;28;19949;-85
2022/05/15 09:15:00;;;;;;;;;;;16.80;94.60;;;;;;4990747;28;19968;-84
2022/05/15 09:17:31;;;;;;;;;;;16.80;94.80;;;;;;4999345;28;19925;-84
2022/05/15 09:20:00;;;;;;;;;;;16.90;94.30;;;;;;4974098;28;19933;-84
2022/05/15 09:22:28;;;;;;;;;;;17.00;95.00;;;;;;4983140;28;19930;-83
2022/05/15 09:24:56;;;;;;;;;;;17.10;94.70;;;;;;5000145;28;19941;-85
2022/05/15 09:27:25;;;;;;;;;;;17.20;94.10;;;;;;4978588;28;20430;-83
2022/05/15 09:29:53;;;;;;;;;;;17.10;93.70;;;;;;4980996;28;19961;-83
2022/05/15 09:32:27;;;;;;;;;;;17.30;94.70;;;;;;4988315;28;19926;-82
2022/05/15 09:35:03;;;;;;;;;;;17.50;94.40;;;;;;5125975;27;19916;-84
2022/05/15 09:40:23;;;;;;;;;;;17.60;94.60;;;;;;5103374;28;21048;-84
2022/05/15 09:45:37;;;;;;;;;;;17.70;93.90;;;;;;5101359;28;19924;-83
2022/05/15 09:48:05;;;;;;;;;;;17.90;94.10;;;;;;5108136;28;20508;-85
2022/05/15 09:50:42;;;;;;;;;;;18.00;94.10;;;;;;5107553;28;19934;-83
2022/05/15 09:53:12;;;;;;;;;;;18.00;93.60;;;;;;5111795;28;20563;-82
2022/05/15 09:55:38;;;;;;;;;;;17.90;93.50;;;;;;5100479;28;19924;-82
2022/05/15 09:58:06;;;;;;;;;;;;;;;;;;5100966;28;20025;-83
2022/05/15 10:00:35;;;;;;;;;;;18.20;93.00;;;;;;5096243;28;20367;-82
2022/05/15 10:03:15;;;;;;;;;;;18.10;92.70;;;;;;5105381;28;19924;-84
2022/05/15 10:05:43;;;;;;;;;;;18.20;92.80;;;;;;5104545;28;19959;-83
2022/05/15 10:08:20;;;;;;;;;;;18.40;92.90;;;;;;5099245;28;19924;-82
2022/05/15 10:10:52;;;;;;;;;;;18.40;92.40;;;;;;5108002;28;19931;-84
2022/05/15 10:13:24;;;;;;;;;;;18.50;91.70;;;;;;5109618;28;19931;-82
2022/05/15 10:15:52;;;;;;;;;;;18.70;92.70;;;;;;5106767;28;20294;-80
2022/05/15 10:18:21;;;;;;;;;;;18.80;92.40;;;;;;5101923;28;19929;-79
2022/05/15 10:20:51;;;;;;;;;;;18.90;92.80;;;;;;5086793;28;19990;-79
2022/05/15 10:23:21;;;;;;;;;;;18.90;92.60;;;;;;5088648;28;19931;-79
2022/05/15 10:25:52;;;;;;;;;;;19.00;91.80;;;;;;5106940;27;19928;-79
2022/05/15 10:28:32;;;;;;;;;;;19.10;92.20;;;;;;5101259;28;19924;-79
2022/05/15 10:31:04;;;;;;;;;;;19.00;91.70;;;;;;5102008;28;20509;-79
2022/05/15 10:33:35;;;;;;;;;;;19.10;91.50;;;;;;5097527;28;19924;-80
2022/05/15 10:36:07;;;;;;;;;;;19.20;92.20;;;;;;5099805;28;19928;-79
2022/05/15 10:38:41;;;;;;;;;;;19.40;92.00;;;;;;5100179;28;19924;-80
2022/05/15 10:41:15;;;;;;;;;;;19.40;92.40;;;;;;5105644;28;19933;-83
2022/05/15 10:43:53;;;;;;;;;;;19.50;91.60;;;;;;5094289;28;19936;-81
2022/05/15 10:46:24;;;;;;;;;;;19.50;91.20;;;;;;5088015;28;19932;-80
2022/05/15 10:48:55;;;;;;;;;;;19.50;91.60;;;;;;5081553;28;20732;-80
2022/05/15 10:51:25;;;;;;;;;;;19.40;92.20;;;;;;5081912;28;20019;-80
2022/05/15 10:59:46;;;;;;;;;;;19.50;92.70;;;;;;5078686;28;19926;-80
2022/05/15 11:02:24;;;;;;;;;;;19.60;92.50;;;;;;5081352;28;19931;-80
2022/05/15 11:04:55;;;;;;;;;;;19.40;91.80;;;;;;5079287;28;19946;-81
2022/05/15 11:07:27;;;;;;;;;;;19.30;91.70;;;;;;5084501;28;19924;-81
2022/05/15 11:10:01;;;;;;;;;;;19.60;91.50;;;;;;5071355;28;20356;-80
2022/05/15 11:12:33;;;;;;;;;;;20.00;91.30;;;;;;5080780;28;20519;-81
2022/05/15 11:15:06;;;;;;;;;;;20.10;91.90;;;;;;5076579;28;20414;-79
2022/05/15 11:17:37;;;;;;;;;;;20.20;90.70;;;;;;5072954;28;19924;-81
2022/05/15 11:20:07;;;;;;;;;;;20.40;89.80;;;;;;5072353;28;19939;-78
2022/05/15 11:22:39;;;;;;;;;;;20.40;90.80;;;;;;5083324;28;20458;-79
2022/05/15 11:25:09;;;;;;;;;;;20.40;91.20;;;;;;5081587;28;19924;-79
2022/05/15 11:27:39;;;;;;;;;;;20.30;91.50;;;;;;5072469;28;19943;-80
2022/05/15 11:30:09;;;;;;;;;;;20.20;91.10;;;;;;5082547;28;19999;-79
2022/05/15 11:32:41;;;;;;;;;;;20.10;91.90;;;;;;5082977;28;19928;-79
2022/05/15 11:35:26;;;;;;;;;;;20.20;92.50;;;;;;5075397;28;19924;-77
2022/05/15 11:38:01;;;;;;;;;;;20.50;91.80;;;;;;5081418;28;20369;-78
2022/05/15 11:40:30;;;;;;;;;;;20.50;92.20;;;;;;5089399;28;19928;-77
2022/05/15 11:42:58;;;;;;;;;;;20.70;92.00;;;;;;5089922;28;20035;-77
2022/05/15 11:45:43;;;;;;;;;;;20.90;90.50;;;;;;5088380;28;19924;-79
2022/05/15 11:48:19;;;;;;;;;;;20.80;90.70;;;;;;5080398;28;19973;-79
2022/05/15 11:50:57;;;;;;;;;;;21.00;90.30;;;;;;5084991;28;19928;-78
2022/05/15 11:53:32;;;;;;;;;;;21.10;90.50;;;;;;5085628;28;19958;-79
2022/05/15 11:56:02;;;;;;;;;;;21.20;90.70;;;;;;5085264;28;20387;-78
2022/05/15 11:58:34;;;;;;;;;;;21.20;90.80;;;;;;5079383;28;20465;-79
2022/05/15 12:01:07;;;;;;;;;;;21.40;90.70;;;;;;5079506;28;19974;-78
2022/05/15 12:03:45;;;;;;;;;;;21.40;87.80;;;;;;5089537;28;19944;-78
2022/05/15 12:06:13;;;;;;;;;;;21.20;86.30;;;;;;5082940;28;20015;-80
2022/05/15 12:08:42;;;;;;;;;;;21.30;86.70;;;;;;5087437;28;19924;-80
2022/05/15 12:11:26;;;;;;;;;;;21.30;86.50;;;;;;5081354;28;19932;-78
2022/05/15 12:13:54;;;;;;;;;;;21.30;85.00;;;;;;5072902;28;20005;-77
2022/05/15 12:16:26;;;;;;;;;;;21.40;88.30;;;;;;5089725;28;20014;-78
2022/05/15 12:19:00;;;;;;;;;;;21.70;89.20;;;;;;5082922;28;20655;-78
2022/05/15 12:21:35;;;;;;;;;;;21.90;87.50;;;;;;5085374;28;19924;-78
2022/05/15 12:26:54;;;;;;;;;;;22.00;87.10;;;;;;5081872;28;19936;-77
2022/05/15 12:29:26;;;;;;;;;;;22.20;86.00;;;;;;5079890;28;19924;-81
2022/05/15 12:31:54;;;;;;;;;;;22.40;86.10;;;;;;5077591;28;19977;-80
2022/05/15 12:34:24;;;;;;;;;;;22.50;86.20;;;;;;5080729;28;19924;-79
2022/05/15 12:36:56;;;;;;;;;;;22.70;84.80;;;;;;5079879;28;19924;-79
2022/05/15 12:39:25;;;;;;;;;;;22.90;83.70;;;;;;5081768;28;19940;-81
2022/05/15 12:41:53;;;;;;;;;;;23.10;84.70;;;;;;5087266;28;19931;-80
2022/05/15 12:44:31;;;;;;;;;;;23.20;83.70;;;;;;5081914;28;19924;-80
2022/05/15 12:47:00;;;;;;;;;;;23.10;83.90;;;;;;5080798;28;20446;-79
2022/05/15 12:49:35;;;;;;;;;;;23.20;81.90;;;;;;5081271;28;19924;-79
2022/05/15 12:52:10;;;;;;;;;;;23.30;81.70;;;;;;5081617;28;19932;-79
2022/05/15 12:54:39;;;;;;;;;;;23.50;82.30;;;;;;5085795;28;19928;-80
2022/05/15 12:57:08;;;;;;;;;;;23.40;82.00;;;;;;5091582;28;20537;-80
2022/05/15 12:59:36;;;;;;;;;;;23.60;82.70;;;;;;5082877;28;20358;-80
2022/05/15 13:02:13;;;;;;;;;;;23.80;80.40;;;;;;5076488;28;19932;-76
2022/05/15 13:04:47;;;;;;;;;;;23.90;81.90;;;;;;5077113;28;19977;-78
2022/05/15 13:07:14;;;;;;;;;;;23.50;78.30;;;;;;5069835;28;19928;-78
2022/05/15 13:09:56;;;;;;;;;;;23.00;74.40;;;;;;5080537;28;19924;-78
2022/05/15 13:12:24;;;;;;;;;;;22.70;76.20;;;;;;5078221;28;20339;-78
2022/05/15 13:14:55;;;;;;;;;;;22.70;74.80;;;;;;5063109;28;20428;-77
2022/05/15 13:17:27;;;;;;;;;;;22.70;74.00;;;;;;5072631;28;19970;-78
2022/05/15 13:19:55;;;;;;;;;;;22.60;73.70;;;;;;5070843;28;19932;-78
2022/05/15 13:22:24;;;;;;;;;;;22.50;75.10;;;;;;5074822;28;20579;-78
2022/05/15 13:24:54;;;;;;;;;;;22.60;79.00;;;;;;5076603;28;19928;-78
2022/05/15 13:27:22;;;;;;;;;;;22.70;78.60;;;;;;5077686;28;19956;-77
2022/05/15 13:29:49;;;;;;;;;;;22.70;76.60;;;;;;5075113;28;19951;-77
2022/05/15 13:32:17;;;;;;;;;;;22.80;77.00;;;;;;5075881;28;19935;-77
2022/05/15 13:34:46;;;;;;;;;;;23.00;79.50;;;;;;5077513;28;19977;-77
2022/05/15 13:37:25;;;;;;;;;;;23.10;79.80;;;;;;5075840;28;20263;-78
2022/05/15 13:45:26;;;;;;;;;;;23.40;80.20;;;;;;5074475;28;19924;-77
2022/05/15 13:48:00;;;;;;;;;;;23.50;80.00;;;;;;5052122;22;19929;-81
2022/05/15 13:50:32;;;;;;;;;;;23.40;80.10;;;;;;5023983;28;19944;-80
2022/05/15 13:53:14;;;;;;;;;;;23.40;79.30;;;;;;5029847;28;19929;-80
2022/05/15 13:55:42;;;;;;;;;;;23.40;80.30;;;;;;5027004;28;19933;-80
2022/05/15 13:58:09;;;;;;;;;;;23.50;79.20;;;;;;5013777;28;21894;-80
2022/05/15 14:00:36;;;;;;;;;;;23.50;80.60;;;;;;5019582;28;22002;-80
2022/05/15 14:03:04;;;;;;;;;;;23.60;78.30;;;;;;5022176;28;19939;-81
2022/05/15 14:05:32;;;;;;;;;;;23.60;78.90;;;;;;5015108;28;19925;-80
2022/05/15 14:08:13;;;;;;;;;;;23.70;79.60;;;;;;5026756;28;20016;-81
2022/05/15 14:10:42;;;;;;;;;;;23.90;78.10;;;;;;5035216;28;19933;-80
2022/05/15 14:13:10;;;;;;;;;;;23.80;78.40;;;;;;5040205;28;20438;-80
2022/05/15 14:15:40;;;;;;;;;;;23.70;77.90;;;;;;5020942;28;19983;-80
2022/05/15 14:18:08;;;;;;;;;;;23.70;80.40;;;;;;5024142;28;19932;-80
2022/05/15 14:20:41;;;;;;;;;;;23.60;77.10;;;;;;5023100;28;19925;-79
2022/05/15 14:23:08;;;;;;;;;;;23.60;76.80;;;;;;5042388;28;19925;-81
2022/05/15 14:25:40;;;;;;;;;;;23.60;78.20;;;;;;5030452;28;19929;-80
2022/05/15 14:28:08;;;;;;;;;;;23.60;77.80;;;;;;5049387;28;19932;-80
2022/05/15 14:30:37;;;;;;;;;;;23.70;77.70;;;;;;5027179;28;19940;-80
2022/05/15 14:33:08;;;;;;;;;;;23.70;75.00;;;;;;5032138;28;19925;-81
2022/05/15 14:35:36;;;;;;;;;;;23.70;77.80;;;;;;5029341;28;19933;-81
2022/05/15 14:38:04;;;;;;;;;;;23.70;79.40;;;;;;5025139;28;19967;-81
2022/05/15 14:40:37;;;;;;;;;;;23.80;79.30;;;;;;5041136;28;19926;-81
2022/05/15 14:43:04;;;;;;;;;;;23.90;77.00;;;;;;5048360;28;19968;-82
2022/05/15 14:45:40;;;;;;;;;;;24.10;75.80;;;;;;5031709;28;20293;-82
2022/05/15 14:48:12;;;;;;;;;;;24.10;76.20;;;;;;5045219;28;19937;-82
2022/05/15 14:50:40;;;;;;;;;;;24.10;76.00;;;;;;5030281;28;19968;-82
2022/05/15 14:53:10;;;;;;;;;;;24.10;76.10;;;;;;5024302;28;20030;-82
2022/05/15 14:58:34;;;;;;;;;;;24.20;73.70;;;;;;5028742;28;19921;-82
2022/05/15 15:01:07;;;;;;;;;;;24.30;74.90;;;;;;5028819;28;19932;-82
2022/05/15 15:03:38;;;;;;;;;;;24.20;74.10;;;;;;5032753;28;19924;-82
2022/05/15 15:06:05;;;;;;;;;;;24.20;76.50;;;;;;5030038;28;19962;-82